sensor_id;sensor_type;location;lat;lon;timestamp;P1;durP1;ratioP1;P2;durP2;ratioP2
6997;SDS011;3539;47.982;12.238;2022-08-01T00:01:27;3.40;;;3.10;;
6997;SDS011;3539;47.982;12.238;2022-08-01T00:03:55;4.77;;;3.30;;
6997;SDS011;3539;47.982;12.238;2022-08-01T00:06:22;4.40;;;3.20;;
6997;SDS011;3539;47.982;12.238;2022-08-01T00:08:49;3.80;;;3.33;;
6997;SDS011;3539;47.982;12.238;2022-08-01T00:11:16;4.17;;;2.90;;
6997;SDS011;3539;47.982;12.238;2022-08-01T00:13:43;3.50;;;3.20;;
6997;SDS011;3539;47.982;12.238;2022-08-01T00:16:09;3.47;;;2.87;;
6997;SDS011;3539;47.982;12.238;2022-08-01T00:18:36;2.80;;;2.60;;
6997;SDS011;3539;47.982;12.238;2022-08-01T00:21:04;3.40;;;2.77;;
6997;SDS011;3539;47.982;12.238;2022-08-01T00:23:31;4.93;;;3.20;;
6997;SDS011;3539;47.982;12.238;2022-08-01T00:25:58;3.50;;;3.20;;
6997;SDS011;3539;47.982;12.238;2022-08-01T00:28:25;3.90;;;3.10;;
6997;SDS011;3539;47.982;12.238;2022-08-01T00:30:51;3.57;;;3.20;;
6997;SDS011;3539;47.982;12.238;2022-08-01T00:33:19;3.50;;;3.20;;
6997;SDS011;3539;47.982;12.238;2022-08-01T00:35:46;3.63;;;3.13;;
6997;SDS011;3539;47.982;12.238;2022-08-01T00:38:14;3.30;;;3.00;;
6997;SDS011;3539;47.982;12.238;2022-08-01T00:40:40;3.80;;;3.50;;
6997;SDS011;3539;47.982;12.238;2022-08-01T00:43:07;4.50;;;3.30;;
6997;SDS011;3539;47.982;12.238;2022-08-01T00:45:34;3.40;;;3.10;;
6997;SDS011;3539;47.982;12.238;2022-08-01T00:48:01;3.53;;;3.23;;
6997;SDS011;3539;47.982;12.238;2022-08-01T00:50:27;3.53;;;3.23;;
6997;SDS011;3539;47.982;12.238;2022-08-01T00:52:54;3.97;;;3.27;;
6997;SDS011;3539;47.982;12.238;2022-08-01T00:55:23;3.53;;;3.23;;
6997;SDS011;3539;47.982;12.238;2022-08-01T00:57:50;3.97;;;3.30;;
6997;SDS011;3539;47.982;12.238;2022-08-01T01:00:18;4.27;;;3.17;;
6997;SDS011;3539;47.982;12.238;2022-08-01T01:02:45;3.53;;;3.10;;
6997;SDS011;3539;47.982;12.238;2022-08-01T01:05:12;5.37;;;2.93;;
6997;SDS011;3539;47.982;12.238;2022-08-01T01:07:40;4.60;;;3.17;;
6997;SDS011;3539;47.982;12.238;2022-08-01T01:10:12;4.90;;;3.33;;
6997;SDS011;3539;47.982;12.238;2022-08-01T01:12:44;3.80;;;3.50;;
6997;SDS011;3539;47.982;12.238;2022-08-01T01:15:17;4.70;;;3.83;;
6997;SDS011;3539;47.982;12.238;2022-08-01T01:17:48;3.40;;;3.10;;
6997;SDS011;3539;47.982;12.238;2022-08-01T01:20:20;3.20;;;3.00;;
6997;SDS011;3539;47.982;12.238;2022-08-01T01:23:09;3.40;;;3.10;;
6997;SDS011;3539;47.982;12.238;2022-08-01T01:25:46;4.23;;;3.23;;
6997;SDS011;3539;47.982;12.238;2022-08-01T01:28:23;3.70;;;3.40;;
6997;SDS011;3539;47.982;12.238;2022-08-01T01:30:55;3.93;;;3.33;;
6997;SDS011;3539;47.982;12.238;2022-08-01T01:33:24;3.87;;;3.57;;
6997;SDS011;3539;47.982;12.238;2022-08-01T01:35:55;4.57;;;3.43;;
6997;SDS011;3539;47.982;12.238;2022-08-01T01:38:26;3.80;;;3.30;;
6997;SDS011;3539;47.982;12.238;2022-08-01T01:40:55;4.13;;;3.30;;
6997;SDS011;3539;47.982;12.238;2022-08-01T01:43:23;4.20;;;3.80;;
6997;SDS011;3539;47.982;12.238;2022-08-01T01:45:51;5.00;;;3.80;;
6997;SDS011;3539;47.982;12.238;2022-08-01T01:48:20;5.40;;;3.70;;
6997;SDS011;3539;47.982;12.238;2022-08-01T01:50:47;4.17;;;3.77;;
6997;SDS011;3539;47.982;12.238;2022-08-01T01:53:16;4.07;;;3.70;;
6997;SDS011;3539;47.982;12.238;2022-08-01T01:55:46;4.50;;;4.10;;
6997;SDS011;3539;47.982;12.238;2022-08-01T01:58:13;4.97;;;3.87;;
6997;SDS011;3539;47.982;12.238;2022-08-01T02:00:42;4.50;;;4.10;;
6997;SDS011;3539;47.982;12.238;2022-08-01T02:03:10;4.43;;;4.03;;
6997;SDS011;3539;47.982;12.238;2022-08-01T02:05:39;4.30;;;3.90;;
6997;SDS011;3539;47.982;12.238;2022-08-01T02:08:07;3.73;;;3.43;;
6997;SDS011;3539;47.982;12.238;2022-08-01T02:10:34;6.40;;;3.90;;
6997;SDS011;3539;47.982;12.238;2022-08-01T02:13:01;5.53;;;3.90;;
6997;SDS011;3539;47.982;12.238;2022-08-01T02:15:29;4.30;;;3.70;;
6997;SDS011;3539;47.982;12.238;2022-08-01T02:17:56;4.83;;;4.20;;
6997;SDS011;3539;47.982;12.238;2022-08-01T02:20:24;5.20;;;3.73;;
6997;SDS011;3539;47.982;12.238;2022-08-01T02:22:55;4.97;;;4.00;;
6997;SDS011;3539;47.982;12.238;2022-08-01T02:25:26;3.73;;;3.33;;
6997;SDS011;3539;47.982;12.238;2022-08-01T02:27:56;4.93;;;3.83;;
6997;SDS011;3539;47.982;12.238;2022-08-01T02:30:26;6.73;;;3.50;;
6997;SDS011;3539;47.982;12.238;2022-08-01T02:33:00;3.93;;;3.63;;
6997;SDS011;3539;47.982;12.238;2022-08-01T02:35:30;3.70;;;3.40;;
6997;SDS011;3539;47.982;12.238;2022-08-01T02:38:00;4.00;;;3.60;;
6997;SDS011;3539;47.982;12.238;2022-08-01T02:40:28;4.43;;;3.40;;
6997;SDS011;3539;47.982;12.238;2022-08-01T02:42:56;4.53;;;3.50;;
6997;SDS011;3539;47.982;12.238;2022-08-01T02:45:24;3.43;;;3.07;;
6997;SDS011;3539;47.982;12.238;2022-08-01T02:47:53;3.37;;;3.07;;
6997;SDS011;3539;47.982;12.238;2022-08-01T02:50:23;3.37;;;3.10;;
6997;SDS011;3539;47.982;12.238;2022-08-01T02:52:51;4.60;;;3.30;;
6997;SDS011;3539;47.982;12.238;2022-08-01T02:55:20;5.47;;;3.67;;
6997;SDS011;3539;47.982;12.238;2022-08-01T02:57:48;3.60;;;3.30;;
6997;SDS011;3539;47.982;12.238;2022-08-01T03:00:16;3.30;;;3.00;;
6997;SDS011;3539;47.982;12.238;2022-08-01T03:02:44;4.13;;;3.23;;
6997;SDS011;3539;47.982;12.238;2022-08-01T03:05:13;4.43;;;2.70;;
6997;SDS011;3539;47.982;12.238;2022-08-01T03:07:40;3.67;;;2.67;;
6997;SDS011;3539;47.982;12.238;2022-08-01T03:10:08;4.00;;;3.10;;
6997;SDS011;3539;47.982;12.238;2022-08-01T03:12:38;3.57;;;3.27;;
6997;SDS011;3539;47.982;12.238;2022-08-01T03:15:06;3.47;;;3.10;;
6997;SDS011;3539;47.982;12.238;2022-08-01T03:17:33;4.00;;;3.20;;
6997;SDS011;3539;47.982;12.238;2022-08-01T03:20:02;4.33;;;2.97;;
6997;SDS011;3539;47.982;12.238;2022-08-01T03:22:29;3.07;;;2.83;;
6997;SDS011;3539;47.982;12.238;2022-08-01T03:24:57;3.37;;;3.00;;
6997;SDS011;3539;47.982;12.238;2022-08-01T03:27:25;3.13;;;2.77;;
6997;SDS011;3539;47.982;12.238;2022-08-01T03:29:54;3.03;;;2.80;;
6997;SDS011;3539;47.982;12.238;2022-08-01T03:32:21;4.40;;;3.00;;
6997;SDS011;3539;47.982;12.238;2022-08-01T03:34:49;3.20;;;2.90;;
6997;SDS011;3539;47.982;12.238;2022-08-01T03:37:19;3.10;;;2.80;;
6997;SDS011;3539;47.982;12.238;2022-08-01T03:39:50;3.70;;;2.90;;
6997;SDS011;3539;47.982;12.238;2022-08-01T03:42:24;3.90;;;2.97;;
6997;SDS011;3539;47.982;12.238;2022-08-01T03:44:58;3.67;;;2.60;;
6997;SDS011;3539;47.982;12.238;2022-08-01T03:47:29;3.17;;;2.60;;
6997;SDS011;3539;47.982;12.238;2022-08-01T03:50:03;3.00;;;2.70;;
6997;SDS011;3539;47.982;12.238;2022-08-01T03:52:32;3.00;;;2.70;;
6997;SDS011;3539;47.982;12.238;2022-08-01T03:55:01;4.60;;;2.77;;
6997;SDS011;3539;47.982;12.238;2022-08-01T03:57:32;3.30;;;2.70;;
6997;SDS011;3539;47.982;12.238;2022-08-01T04:00:00;2.73;;;2.40;;
6997;SDS011;3539;47.982;12.238;2022-08-01T04:02:27;2.70;;;2.50;;
6997;SDS011;3539;47.982;12.238;2022-08-01T04:04:55;4.67;;;2.63;;
6997;SDS011;3539;47.982;12.238;2022-08-01T04:07:22;3.63;;;2.60;;
6997;SDS011;3539;47.982;12.238;2022-08-01T04:09:49;3.70;;;2.50;;
6997;SDS011;3539;47.982;12.238;2022-08-01T04:12:16;3.27;;;2.70;;
6997;SDS011;3539;47.982;12.238;2022-08-01T04:14:43;2.77;;;2.57;;
6997;SDS011;3539;47.982;12.238;2022-08-01T04:17:11;3.50;;;2.40;;
6997;SDS011;3539;47.982;12.238;2022-08-01T04:19:38;2.83;;;2.40;;
6997;SDS011;3539;47.982;12.238;2022-08-01T04:22:05;2.60;;;2.40;;
6997;SDS011;3539;47.982;12.238;2022-08-01T04:24:32;4.07;;;2.40;;
6997;SDS011;3539;47.982;12.238;2022-08-01T04:27:00;2.67;;;2.40;;
6997;SDS011;3539;47.982;12.238;2022-08-01T04:29:28;2.83;;;2.60;;
6997;SDS011;3539;47.982;12.238;2022-08-01T04:31:56;3.77;;;2.80;;
6997;SDS011;3539;47.982;12.238;2022-08-01T04:34:27;2.60;;;2.40;;
6997;SDS011;3539;47.982;12.238;2022-08-01T04:36:55;2.40;;;2.20;;
6997;SDS011;3539;47.982;12.238;2022-08-01T04:39:23;3.33;;;2.40;;
6997;SDS011;3539;47.982;12.238;2022-08-01T04:41:52;3.03;;;2.60;;
6997;SDS011;3539;47.982;12.238;2022-08-01T04:44:21;4.30;;;2.47;;
6997;SDS011;3539;47.982;12.238;2022-08-01T04:46:48;2.73;;;2.50;;
6997;SDS011;3539;47.982;12.238;2022-08-01T04:49:15;4.83;;;2.30;;
6997;SDS011;3539;47.982;12.238;2022-08-01T04:51:51;3.13;;;2.40;;
6997;SDS011;3539;47.982;12.238;2022-08-01T04:54:22;2.50;;;2.30;;
6997;SDS011;3539;47.982;12.238;2022-08-01T04:56:50;2.50;;;2.30;;
6997;SDS011;3539;47.982;12.238;2022-08-01T04:59:18;3.43;;;2.47;;
6997;SDS011;3539;47.982;12.238;2022-08-01T05:02:02;3.47;;;2.40;;
6997;SDS011;3539;47.982;12.238;2022-08-01T05:04:29;3.03;;;2.30;;
6997;SDS011;3539;47.982;12.238;2022-08-01T05:06:59;2.40;;;2.20;;
6997;SDS011;3539;47.982;12.238;2022-08-01T05:09:25;2.67;;;2.33;;
6997;SDS011;3539;47.982;12.238;2022-08-01T05:11:52;4.73;;;2.60;;
6997;SDS011;3539;47.982;12.238;2022-08-01T05:14:19;2.73;;;2.43;;
6997;SDS011;3539;47.982;12.238;2022-08-01T05:16:46;2.97;;;2.50;;
6997;SDS011;3539;47.982;12.238;2022-08-01T05:19:13;2.40;;;2.20;;
6997;SDS011;3539;47.982;12.238;2022-08-01T05:21:40;2.80;;;2.57;;
6997;SDS011;3539;47.982;12.238;2022-08-01T05:24:08;4.73;;;2.57;;
6997;SDS011;3539;47.982;12.238;2022-08-01T05:26:35;2.73;;;2.50;;
6997;SDS011;3539;47.982;12.238;2022-08-01T05:29:02;2.50;;;2.30;;
6997;SDS011;3539;47.982;12.238;2022-08-01T05:31:29;3.63;;;2.50;;
6997;SDS011;3539;47.982;12.238;2022-08-01T05:33:59;2.50;;;2.30;;
6997;SDS011;3539;47.982;12.238;2022-08-01T05:36:25;4.37;;;2.50;;
6997;SDS011;3539;47.982;12.238;2022-08-01T05:38:52;3.07;;;2.53;;
6997;SDS011;3539;47.982;12.238;2022-08-01T05:41:20;3.70;;;2.27;;
6997;SDS011;3539;47.982;12.238;2022-08-01T05:43:47;3.33;;;2.60;;
6997;SDS011;3539;47.982;12.238;2022-08-01T05:46:13;3.33;;;2.30;;
6997;SDS011;3539;47.982;12.238;2022-08-01T05:48:40;2.73;;;2.37;;
6997;SDS011;3539;47.982;12.238;2022-08-01T05:51:07;2.23;;;2.03;;
6997;SDS011;3539;47.982;12.238;2022-08-01T05:53:33;4.33;;;2.73;;
6997;SDS011;3539;47.982;12.238;2022-08-01T05:56:00;2.73;;;2.50;;
6997;SDS011;3539;47.982;12.238;2022-08-01T05:58:28;2.90;;;2.23;;
6997;SDS011;3539;47.982;12.238;2022-08-01T06:00:55;3.33;;;2.07;;
6997;SDS011;3539;47.982;12.238;2022-08-01T06:03:22;3.23;;;2.40;;
6997;SDS011;3539;47.982;12.238;2022-08-01T06:05:48;3.33;;;2.20;;
6997;SDS011;3539;47.982;12.238;2022-08-01T06:08:15;3.20;;;2.50;;
6997;SDS011;3539;47.982;12.238;2022-08-01T06:10:42;2.77;;;2.20;;
6997;SDS011;3539;47.982;12.238;2022-08-01T06:13:09;3.47;;;2.30;;
6997;SDS011;3539;47.982;12.238;2022-08-01T06:15:37;3.13;;;2.30;;
6997;SDS011;3539;47.982;12.238;2022-08-01T06:18:04;3.97;;;2.50;;
6997;SDS011;3539;47.982;12.238;2022-08-01T06:20:31;2.80;;;2.50;;
6997;SDS011;3539;47.982;12.238;2022-08-01T06:22:57;2.37;;;2.17;;
6997;SDS011;3539;47.982;12.238;2022-08-01T06:25:24;2.80;;;2.50;;
6997;SDS011;3539;47.982;12.238;2022-08-01T06:27:51;3.57;;;2.30;;
6997;SDS011;3539;47.982;12.238;2022-08-01T06:30:21;2.70;;;2.50;;
6997;SDS011;3539;47.982;12.238;2022-08-01T06:32:49;2.90;;;2.53;;
6997;SDS011;3539;47.982;12.238;2022-08-01T06:35:16;3.07;;;2.67;;
6997;SDS011;3539;47.982;12.238;2022-08-01T06:37:42;3.00;;;2.50;;
6997;SDS011;3539;47.982;12.238;2022-08-01T06:40:10;2.90;;;2.60;;
6997;SDS011;3539;47.982;12.238;2022-08-01T06:42:37;4.07;;;2.40;;
6997;SDS011;3539;47.982;12.238;2022-08-01T06:45:05;2.87;;;2.63;;
6997;SDS011;3539;47.982;12.238;2022-08-01T06:47:33;3.70;;;2.50;;
6997;SDS011;3539;47.982;12.238;2022-08-01T06:50:01;2.77;;;2.57;;
6997;SDS011;3539;47.982;12.238;2022-08-01T06:52:28;2.50;;;2.30;;
6997;SDS011;3539;47.982;12.238;2022-08-01T06:54:54;4.13;;;2.70;;
6997;SDS011;3539;47.982;12.238;2022-08-01T06:57:21;6.00;;;2.90;;
6997;SDS011;3539;47.982;12.238;2022-08-01T06:59:48;2.93;;;2.63;;
6997;SDS011;3539;47.982;12.238;2022-08-01T07:02:15;2.80;;;2.27;;
6997;SDS011;3539;47.982;12.238;2022-08-01T07:04:41;2.90;;;2.67;;
6997;SDS011;3539;47.982;12.238;2022-08-01T07:07:09;3.00;;;2.30;;
6997;SDS011;3539;47.982;12.238;2022-08-01T07:09:36;3.60;;;2.63;;
6997;SDS011;3539;47.982;12.238;2022-08-01T07:12:06;3.13;;;2.67;;
6997;SDS011;3539;47.982;12.238;2022-08-01T07:14:33;3.07;;;2.40;;
6997;SDS011;3539;47.982;12.238;2022-08-01T07:16:59;2.67;;;2.47;;
6997;SDS011;3539;47.982;12.238;2022-08-01T07:19:26;3.50;;;2.40;;
6997;SDS011;3539;47.982;12.238;2022-08-01T07:21:53;2.83;;;2.43;;
6997;SDS011;3539;47.982;12.238;2022-08-01T07:24:21;3.57;;;2.60;;
6997;SDS011;3539;47.982;12.238;2022-08-01T07:26:48;3.27;;;2.50;;
6997;SDS011;3539;47.982;12.238;2022-08-01T07:29:15;4.93;;;2.60;;
6997;SDS011;3539;47.982;12.238;2022-08-01T07:31:42;2.67;;;2.40;;
6997;SDS011;3539;47.982;12.238;2022-08-01T07:34:08;2.50;;;2.23;;
6997;SDS011;3539;47.982;12.238;2022-08-01T07:36:35;3.50;;;2.53;;
6997;SDS011;3539;47.982;12.238;2022-08-01T07:39:02;2.93;;;2.37;;
6997;SDS011;3539;47.982;12.238;2022-08-01T07:41:30;3.27;;;2.60;;
6997;SDS011;3539;47.982;12.238;2022-08-01T07:43:56;2.73;;;2.50;;
6997;SDS011;3539;47.982;12.238;2022-08-01T07:46:23;3.77;;;2.80;;
6997;SDS011;3539;47.982;12.238;2022-08-01T07:48:50;2.67;;;2.43;;
6997;SDS011;3539;47.982;12.238;2022-08-01T07:51:17;2.93;;;2.60;;
6997;SDS011;3539;47.982;12.238;2022-08-01T07:53:44;2.83;;;2.50;;
6997;SDS011;3539;47.982;12.238;2022-08-01T07:56:11;4.83;;;2.37;;
6997;SDS011;3539;47.982;12.238;2022-08-01T07:58:39;4.17;;;2.47;;
6997;SDS011;3539;47.982;12.238;2022-08-01T08:01:05;2.57;;;2.37;;
6997;SDS011;3539;47.982;12.238;2022-08-01T08:03:32;2.90;;;2.67;;
6997;SDS011;3539;47.982;12.238;2022-08-01T08:05:59;3.17;;;2.40;;
6997;SDS011;3539;47.982;12.238;2022-08-01T08:08:26;2.67;;;2.47;;
6997;SDS011;3539;47.982;12.238;2022-08-01T08:10:52;2.70;;;2.50;;
6997;SDS011;3539;47.982;12.238;2022-08-01T08:13:19;2.40;;;2.13;;
6997;SDS011;3539;47.982;12.238;2022-08-01T08:15:48;4.43;;;2.40;;
6997;SDS011;3539;47.982;12.238;2022-08-01T08:18:14;3.43;;;2.53;;
6997;SDS011;3539;47.982;12.238;2022-08-01T08:20:41;2.70;;;2.50;;
6997;SDS011;3539;47.982;12.238;2022-08-01T08:23:09;2.80;;;2.60;;
6997;SDS011;3539;47.982;12.238;2022-08-01T08:25:49;3.00;;;2.70;;
6997;SDS011;3539;47.982;12.238;2022-08-01T08:28:16;2.60;;;2.40;;
6997;SDS011;3539;47.982;12.238;2022-08-01T08:30:43;2.80;;;2.60;;
6997;SDS011;3539;47.982;12.238;2022-08-01T08:33:11;2.90;;;2.70;;
6997;SDS011;3539;47.982;12.238;2022-08-01T08:35:38;3.13;;;2.57;;
6997;SDS011;3539;47.982;12.238;2022-08-01T08:38:05;4.40;;;4.00;;
6997;SDS011;3539;47.982;12.238;2022-08-01T08:40:32;3.93;;;2.77;;
6997;SDS011;3539;47.982;12.238;2022-08-01T08:43:01;4.17;;;2.57;;
6997;SDS011;3539;47.982;12.238;2022-08-01T08:45:29;2.80;;;2.60;;
6997;SDS011;3539;47.982;12.238;2022-08-01T08:47:57;3.23;;;2.83;;
6997;SDS011;3539;47.982;12.238;2022-08-01T08:50:25;3.20;;;2.90;;
6997;SDS011;3539;47.982;12.238;2022-08-01T08:52:52;3.30;;;3.00;;
6997;SDS011;3539;47.982;12.238;2022-08-01T08:55:20;3.00;;;2.70;;
6997;SDS011;3539;47.982;12.238;2022-08-01T08:57:47;5.13;;;3.07;;
6997;SDS011;3539;47.982;12.238;2022-08-01T09:00:14;3.27;;;2.97;;
6997;SDS011;3539;47.982;12.238;2022-08-01T09:02:41;3.03;;;2.83;;
6997;SDS011;3539;47.982;12.238;2022-08-01T09:05:09;4.70;;;2.88;;
6997;SDS011;3539;47.982;12.238;2022-08-01T09:07:37;3.45;;;3.15;;
6997;SDS011;3539;47.982;12.238;2022-08-01T09:10:05;3.15;;;2.85;;
6997;SDS011;3539;47.982;12.238;2022-08-01T09:12:32;3.00;;;2.80;;
6997;SDS011;3539;47.982;12.238;2022-08-01T09:14:59;3.40;;;3.10;;
6997;SDS011;3539;47.982;12.238;2022-08-01T09:17:25;3.22;;;3.00;;
6997;SDS011;3539;47.982;12.238;2022-08-01T09:19:53;3.65;;;3.22;;
6997;SDS011;3539;47.982;12.238;2022-08-01T09:22:21;3.22;;;2.97;;
6997;SDS011;3539;47.982;12.238;2022-08-01T09:25:00;3.30;;;3.00;;
6997;SDS011;3539;47.982;12.238;2022-08-01T09:27:29;3.50;;;3.17;;
6997;SDS011;3539;47.982;12.238;2022-08-01T09:30:06;3.08;;;2.88;;
6997;SDS011;3539;47.982;12.238;2022-08-01T09:32:34;3.83;;;3.53;;
6997;SDS011;3539;47.982;12.238;2022-08-01T09:35:03;3.15;;;2.88;;
6997;SDS011;3539;47.982;12.238;2022-08-01T09:37:48;3.33;;;2.92;;
6997;SDS011;3539;47.982;12.238;2022-08-01T09:40:16;3.63;;;3.33;;
6997;SDS011;3539;47.982;12.238;2022-08-01T09:42:43;3.40;;;3.10;;
6997;SDS011;3539;47.982;12.238;2022-08-01T09:47:59;3.15;;;2.95;;
6997;SDS011;3539;47.982;12.238;2022-08-01T09:50:38;3.35;;;3.05;;
6997;SDS011;3539;47.982;12.238;2022-08-01T09:53:05;3.10;;;2.90;;
6997;SDS011;3539;47.982;12.238;2022-08-01T09:55:34;3.25;;;2.90;;
6997;SDS011;3539;47.982;12.238;2022-08-01T09:58:00;2.70;;;2.50;;
6997;SDS011;3539;47.982;12.238;2022-08-01T10:00:29;3.22;;;2.90;;
6997;SDS011;3539;47.982;12.238;2022-08-01T10:02:56;3.65;;;2.90;;
6997;SDS011;3539;47.982;12.238;2022-08-01T10:05:29;2.97;;;2.45;;
6997;SDS011;3539;47.982;12.238;2022-08-01T10:07:57;2.75;;;2.55;;
6997;SDS011;3539;47.982;12.238;2022-08-01T10:10:24;2.85;;;2.65;;
6997;SDS011;3539;47.982;12.238;2022-08-01T10:12:52;5.45;;;2.63;;
6997;SDS011;3539;47.982;12.238;2022-08-01T10:15:21;3.45;;;3.25;;
6997;SDS011;3539;47.982;12.238;2022-08-01T10:17:51;2.67;;;2.47;;
6997;SDS011;3539;47.982;12.238;2022-08-01T10:20:20;2.75;;;2.33;;
6997;SDS011;3539;47.982;12.238;2022-08-01T10:22:49;2.88;;;2.67;;
6997;SDS011;3539;47.982;12.238;2022-08-01T10:25:16;4.60;;;2.60;;
6997;SDS011;3539;47.982;12.238;2022-08-01T10:27:44;3.08;;;2.60;;
6997;SDS011;3539;47.982;12.238;2022-08-01T10:30:13;2.90;;;2.70;;
6997;SDS011;3539;47.982;12.238;2022-08-01T10:32:40;2.70;;;2.50;;
6997;SDS011;3539;47.982;12.238;2022-08-01T10:35:08;4.22;;;2.75;;
6997;SDS011;3539;47.982;12.238;2022-08-01T10:37:39;3.22;;;2.80;;
6997;SDS011;3539;47.982;12.238;2022-08-01T10:40:07;2.67;;;2.47;;
6997;SDS011;3539;47.982;12.238;2022-08-01T10:42:34;2.88;;;2.40;;
6997;SDS011;3539;47.982;12.238;2022-08-01T10:45:01;2.65;;;2.45;;
6997;SDS011;3539;47.982;12.238;2022-08-01T10:47:32;2.75;;;2.55;;
6997;SDS011;3539;47.982;12.238;2022-08-01T10:50:07;3.70;;;2.70;;
6997;SDS011;3539;47.982;12.238;2022-08-01T10:52:39;2.42;;;2.22;;
6997;SDS011;3539;47.982;12.238;2022-08-01T10:55:06;2.53;;;2.33;;
6997;SDS011;3539;47.982;12.238;2022-08-01T10:57:41;2.88;;;2.40;;
6997;SDS011;3539;47.982;12.238;2022-08-01T11:00:09;3.20;;;2.42;;
6997;SDS011;3539;47.982;12.238;2022-08-01T11:02:57;6.53;;;2.90;;
6997;SDS011;3539;47.982;12.238;2022-08-01T11:05:25;2.78;;;2.58;;
6997;SDS011;3539;47.982;12.238;2022-08-01T11:07:53;2.72;;;2.53;;
6997;SDS011;3539;47.982;12.238;2022-08-01T11:10:22;3.15;;;2.85;;
6997;SDS011;3539;47.982;12.238;2022-08-01T11:12:52;3.65;;;2.90;;
6997;SDS011;3539;47.982;12.238;2022-08-01T11:15:23;2.85;;;2.65;;
6997;SDS011;3539;47.982;12.238;2022-08-01T11:17:57;2.63;;;2.42;;
6997;SDS011;3539;47.982;12.238;2022-08-01T11:20:26;2.75;;;2.55;;
6997;SDS011;3539;47.982;12.238;2022-08-01T11:29:10;2.70;;;2.40;;
6997;SDS011;3539;47.982;12.238;2022-08-01T11:31:37;2.50;;;2.40;;
6997;SDS011;3539;47.982;12.238;2022-08-01T11:34:05;2.42;;;2.22;;
6997;SDS011;3539;47.982;12.238;2022-08-01T11:36:34;2.33;;;2.13;;
6997;SDS011;3539;47.982;12.238;2022-08-01T11:39:11;2.50;;;2.30;;
6997;SDS011;3539;47.982;12.238;2022-08-01T11:41:42;2.90;;;2.60;;
6997;SDS011;3539;47.982;12.238;2022-08-01T11:44:10;2.47;;;2.28;;
6997;SDS011;3539;47.982;12.238;2022-08-01T11:46:51;2.33;;;2.22;;
6997;SDS011;3539;47.982;12.238;2022-08-01T11:49:46;2.60;;;2.40;;
6997;SDS011;3539;47.982;12.238;2022-08-01T11:52:16;2.63;;;2.40;;
6997;SDS011;3539;47.982;12.238;2022-08-01T11:54:45;2.60;;;2.40;;
6997;SDS011;3539;47.982;12.238;2022-08-01T11:57:13;3.17;;;2.50;;
6997;SDS011;3539;47.982;12.238;2022-08-01T11:59:41;2.60;;;2.40;;
6997;SDS011;3539;47.982;12.238;2022-08-01T12:02:15;2.65;;;2.22;;
6997;SDS011;3539;47.982;12.238;2022-08-01T12:04:45;2.88;;;2.50;;
6997;SDS011;3539;47.982;12.238;2022-08-01T12:07:16;2.60;;;2.40;;
6997;SDS011;3539;47.982;12.238;2022-08-01T12:09:44;3.08;;;2.45;;
6997;SDS011;3539;47.982;12.238;2022-08-01T12:12:14;2.72;;;2.53;;
6997;SDS011;3539;47.982;12.238;2022-08-01T12:14:43;2.15;;;2.03;;
6997;SDS011;3539;47.982;12.238;2022-08-01T12:17:10;2.50;;;2.30;;
6997;SDS011;3539;47.982;12.238;2022-08-01T12:19:36;3.22;;;2.45;;
6997;SDS011;3539;47.982;12.238;2022-08-01T12:22:09;2.97;;;2.58;;
6997;SDS011;3539;47.982;12.238;2022-08-01T12:24:38;2.42;;;2.22;;
6997;SDS011;3539;47.982;12.238;2022-08-01T12:27:06;2.67;;;2.17;;
6997;SDS011;3539;47.982;12.238;2022-08-01T12:29:35;3.15;;;2.92;;
6997;SDS011;3539;47.982;12.238;2022-08-01T12:32:03;2.72;;;2.40;;
6997;SDS011;3539;47.982;12.238;2022-08-01T12:34:30;2.75;;;2.55;;
6997;SDS011;3539;47.982;12.238;2022-08-01T12:36:59;2.80;;;2.60;;
6997;SDS011;3539;47.982;12.238;2022-08-01T12:39:35;2.40;;;2.20;;
6997;SDS011;3539;47.982;12.238;2022-08-01T12:42:05;5.20;;;2.38;;
6997;SDS011;3539;47.982;12.238;2022-08-01T12:44:33;2.58;;;2.30;;
6997;SDS011;3539;47.982;12.238;2022-08-01T12:47:00;2.65;;;2.38;;
6997;SDS011;3539;47.982;12.238;2022-08-01T12:49:28;2.55;;;2.30;;
6997;SDS011;3539;47.982;12.238;2022-08-01T12:51:54;2.70;;;2.50;;
6997;SDS011;3539;47.982;12.238;2022-08-01T12:54:22;2.63;;;2.42;;
6997;SDS011;3539;47.982;12.238;2022-08-01T12:56:51;2.47;;;2.25;;
6997;SDS011;3539;47.982;12.238;2022-08-01T12:59:19;2.63;;;2.42;;
6997;SDS011;3539;47.982;12.238;2022-08-01T13:01:48;3.67;;;2.60;;
6997;SDS011;3539;47.982;12.238;2022-08-01T13:04:14;2.50;;;2.30;;
6997;SDS011;3539;47.982;12.238;2022-08-01T13:06:41;2.45;;;2.25;;
6997;SDS011;3539;47.982;12.238;2022-08-01T13:09:08;2.55;;;2.35;;
6997;SDS011;3539;47.982;12.238;2022-08-01T13:11:36;2.53;;;2.33;;
6997;SDS011;3539;47.982;12.238;2022-08-01T13:14:04;4.82;;;2.40;;
6997;SDS011;3539;47.982;12.238;2022-08-01T13:16:31;2.28;;;2.17;;
6997;SDS011;3539;47.982;12.238;2022-08-01T13:18:58;2.63;;;2.42;;
6997;SDS011;3539;47.982;12.238;2022-08-01T13:21:26;2.72;;;2.53;;
6997;SDS011;3539;47.982;12.238;2022-08-01T13:24:00;2.88;;;2.67;;
6997;SDS011;3539;47.982;12.238;2022-08-01T13:26:37;3.00;;;2.50;;
6997;SDS011;3539;47.982;12.238;2022-08-01T13:29:06;2.85;;;2.65;;
6997;SDS011;3539;47.982;12.238;2022-08-01T13:31:34;2.55;;;2.33;;
6997;SDS011;3539;47.982;12.238;2022-08-01T13:34:01;2.50;;;2.30;;
6997;SDS011;3539;47.982;12.238;2022-08-01T13:36:28;3.30;;;2.20;;
6997;SDS011;3539;47.982;12.238;2022-08-01T13:38:56;4.05;;;2.70;;
6997;SDS011;3539;47.982;12.238;2022-08-01T13:41:40;2.80;;;2.60;;
6997;SDS011;3539;47.982;12.238;2022-08-01T13:44:09;2.70;;;2.50;;
6997;SDS011;3539;47.982;12.238;2022-08-01T13:46:36;2.53;;;2.33;;
6997;SDS011;3539;47.982;12.238;2022-08-01T13:49:03;2.92;;;2.55;;
6997;SDS011;3539;47.982;12.238;2022-08-01T13:51:30;2.63;;;2.42;;
6997;SDS011;3539;47.982;12.238;2022-08-01T13:53:59;2.20;;;2.10;;
6997;SDS011;3539;47.982;12.238;2022-08-01T13:56:27;2.38;;;2.17;;
6997;SDS011;3539;47.982;12.238;2022-08-01T13:58:53;2.50;;;2.30;;
6997;SDS011;3539;47.982;12.238;2022-08-01T14:01:21;2.55;;;2.35;;
6997;SDS011;3539;47.982;12.238;2022-08-01T14:03:49;6.00;;;5.70;;
6997;SDS011;3539;47.982;12.238;2022-08-01T14:06:16;2.58;;;2.47;;
6997;SDS011;3539;47.982;12.238;2022-08-01T14:08:43;2.35;;;2.25;;
6997;SDS011;3539;47.982;12.238;2022-08-01T14:11:10;3.50;;;2.50;;
6997;SDS011;3539;47.982;12.238;2022-08-01T14:13:37;2.78;;;2.55;;
6997;SDS011;3539;47.982;12.238;2022-08-01T14:16:05;2.35;;;2.25;;
6997;SDS011;3539;47.982;12.238;2022-08-01T14:18:34;2.88;;;2.50;;
6997;SDS011;3539;47.982;12.238;2022-08-01T14:21:01;2.47;;;2.28;;
6997;SDS011;3539;47.982;12.238;2022-08-01T14:23:27;2.92;;;2.42;;
6997;SDS011;3539;47.982;12.238;2022-08-01T14:25:54;2.80;;;2.60;;
6997;SDS011;3539;47.982;12.238;2022-08-01T14:28:21;2.50;;;2.30;;
6997;SDS011;3539;47.982;12.238;2022-08-01T14:30:48;2.40;;;2.30;;
6997;SDS011;3539;47.982;12.238;2022-08-01T14:33:15;2.47;;;2.28;;
6997;SDS011;3539;47.982;12.238;2022-08-01T14:35:43;2.25;;;2.10;;
6997;SDS011;3539;47.982;12.238;2022-08-01T14:38:10;2.25;;;2.08;;
6997;SDS011;3539;47.982;12.238;2022-08-01T14:40:37;2.55;;;2.10;;
6997;SDS011;3539;47.982;12.238;2022-08-01T14:43:03;3.95;;;2.80;;
6997;SDS011;3539;47.982;12.238;2022-08-01T14:45:30;3.50;;;2.33;;
6997;SDS011;3539;47.982;12.238;2022-08-01T14:47:58;2.80;;;2.50;;
6997;SDS011;3539;47.982;12.238;2022-08-01T14:50:25;3.35;;;2.60;;
6997;SDS011;3539;47.982;12.238;2022-08-01T14:52:54;3.05;;;2.20;;
6997;SDS011;3539;47.982;12.238;2022-08-01T14:55:21;2.40;;;2.20;;
6997;SDS011;3539;47.982;12.238;2022-08-01T14:57:50;2.47;;;2.28;;
6997;SDS011;3539;47.982;12.238;2022-08-01T15:00:16;2.50;;;2.30;;
6997;SDS011;3539;47.982;12.238;2022-08-01T15:02:43;2.15;;;2.05;;
6997;SDS011;3539;47.982;12.238;2022-08-01T15:05:10;2.50;;;2.40;;
6997;SDS011;3539;47.982;12.238;2022-08-01T15:07:37;2.58;;;2.38;;
6997;SDS011;3539;47.982;12.238;2022-08-01T15:10:06;2.63;;;2.28;;
6997;SDS011;3539;47.982;12.238;2022-08-01T15:12:34;2.50;;;2.30;;
6997;SDS011;3539;47.982;12.238;2022-08-01T15:15:01;3.25;;;2.35;;
6997;SDS011;3539;47.982;12.238;2022-08-01T15:17:29;2.45;;;2.25;;